Time;durP1;ratioP1;P1;durP2;ratioP2;P2;SDS_P1;SDS_P2;PMS_P1;PMS_P2;Temp;Humidity;BMP_temperature;BMP_pressure;BME280_temperature;BME280_humidity;BME280_pressure;Samples;Min_cycle;Max_cycle;Signal;HPM_P1;HPM_P2
2022/05/19 00:02:18;;;;;;;9.73;5.72;;;19.80;77.60;;;;;;5044254;28;20172;-88
2022/05/19 00:04:44;;;;;;;9.93;5.95;;;19.80;77.70;;;;;;5061938;28;20176;-88
2022/05/19 00:07:11;;;;;;;10.15;5.40;;;19.70;77.70;;;;;;5044503;28;20582;-88
2022/05/19 00:09:37;;;;;;;8.43;5.55;;;19.70;78.00;;;;;;5044400;28;20176;-88
2022/05/19 00:12:10;;;;;;;7.05;5.80;;;19.60;78.00;;;;;;5043746;28;20250;-88
2022/05/19 00:14:36;;;;;;;6.60;5.82;;;19.60;78.10;;;;;;5043219;28;20176;-88
2022/05/19 00:17:02;;;;;;;12.48;6.35;;;19.60;78.20;;;;;;5044130;28;20183;-87
2022/05/19 00:19:27;;;;;;;7.05;5.90;;;19.60;78.30;;;;;;5062266;28;20172;-88
2022/05/19 00:21:54;;;;;;;10.50;5.78;;;19.50;78.50;;;;;;5061214;28;20191;-88
2022/05/19 00:24:20;;;;;;;8.23;5.45;;;19.50;78.60;;;;;;5061569;28;20222;-88
2022/05/19 00:26:45;;;;;;;7.70;5.68;;;19.50;78.80;;;;;;5043036;28;20261;-88
2022/05/19 00:29:11;;;;;;;10.52;6.05;;;19.50;78.70;;;;;;5043342;28;20168;-88
2022/05/19 00:31:36;;;;;;;7.97;5.80;;;19.40;78.80;;;;;;5043791;28;20298;-88
2022/05/19 00:34:04;;;;;;;6.07;5.47;;;19.40;78.90;;;;;;5044327;28;20164;-88
2022/05/19 00:36:30;;;;;;;10.15;6.13;;;19.50;78.80;;;;;;5061230;28;20176;-88
2022/05/19 00:38:55;;;;;;;8.52;6.28;;;19.40;78.60;;;;;;5043154;28;20267;-88
2022/05/19 00:41:21;;;;;;;7.20;5.97;;;19.30;78.70;;;;;;5042993;28;20231;-88
2022/05/19 00:43:57;;;;;;;7.60;5.78;;;19.30;78.70;;;;;;5043222;28;20183;-88
2022/05/19 00:46:46;;;;;;;6.60;5.47;;;19.20;78.80;;;;;;5042804;28;20287;-88
2022/05/19 00:49:21;;;;;;;8.85;5.78;;;19.10;79.10;;;;;;5041226;28;20203;-88
2022/05/19 00:51:59;;;;;;;8.80;5.80;;;19.10;79.20;;;;;;5040098;28;20278;-88
2022/05/19 00:54:34;;;;;;;7.25;5.63;;;19.00;79.30;;;;;;5058237;28;20168;-88
2022/05/19 00:57:10;;;;;;;6.18;5.57;;;18.90;79.40;;;;;;5040767;28;20642;-88
2022/05/19 00:59:48;;;;;;;7.82;5.65;;;18.80;79.70;;;;;;5041227;28;20274;-88
2022/05/19 01:02:20;;;;;;;12.63;6.50;;;18.80;80.00;;;;;;5043761;28;20168;-88
2022/05/19 01:04:55;;;;;;;10.23;6.35;;;18.70;80.10;;;;;;5044204;28;20164;-88
2022/05/19 01:07:27;;;;;;;8.57;6.28;;;18.60;81.30;;;;;;5043623;28;20199;-88
2022/05/19 01:09:56;;;;;;;9.57;6.68;;;18.50;81.50;;;;;;5043999;28;20218;-88
2022/05/19 01:12:22;;;;;;;8.98;6.53;;;18.50;81.70;;;;;;5044308;28;20172;-88
2022/05/19 01:14:47;;;;;;;10.90;6.13;;;18.40;81.80;;;;;;5061581;28;20171;-88
2022/05/19 01:17:13;;;;;;;10.95;6.28;;;18.30;82.00;;;;;;5044517;28;20180;-88
2022/05/19 01:19:42;;;;;;;7.13;6.43;;;18.20;82.40;;;;;;5042682;28;20239;-88
2022/05/19 01:22:27;;;;;;;10.40;6.38;;;18.10;82.70;;;;;;5060723;28;20176;-88
2022/05/19 01:25:05;;;;;;;10.02;6.10;;;18.20;82.80;;;;;;5062252;28;20167;-88
2022/05/19 01:27:31;;;;;;;8.15;6.18;;;18.10;82.80;;;;;;5042178;28;20692;-88
2022/05/19 01:29:57;;;;;;;7.10;6.40;;;18.00;82.80;;;;;;5040771;28;20203;-88
2022/05/19 01:32:26;;;;;;;7.38;6.10;;;18.00;82.70;;;;;;5040871;28;20210;-89
2022/05/19 01:34:52;;;;;;;9.38;6.63;;;18.00;82.60;;;;;;5040776;28;20267;-87
2022/05/19 01:37:18;;;;;;;8.48;6.50;;;17.90;82.70;;;;;;5040907;28;20176;-88
2022/05/19 01:39:47;;;;;;;7.32;6.60;;;17.90;82.70;;;;;;5043610;28;20176;-88
2022/05/19 01:42:53;;;;;;;14.27;6.75;;;17.90;82.70;;;;;;5042525;28;20176;-88
2022/05/19 01:45:33;;;;;;;8.65;6.00;;;17.90;82.70;;;;;;5042806;28;20218;-87
2022/05/19 01:48:17;;;;;;;6.88;6.07;;;17.80;82.80;;;;;;5061064;28;20255;-88
2022/05/19 01:51:01;;;;;;;7.70;5.38;;;17.70;83.30;;;;;;5043172;28;20246;-85
2022/05/19 01:53:36;;;;;;;12.02;6.43;;;17.40;83.90;;;;;;5059114;28;20168;-88
2022/05/19 01:56:29;;;;;;;10.15;5.85;;;17.40;84.10;;;;;;5043294;28;20164;-88
2022/05/19 01:59:09;;;;;;;12.85;6.22;;;17.40;84.20;;;;;;5041791;28;20236;-88
2022/05/19 02:01:36;;;;;;;7.55;6.20;;;17.30;84.40;;;;;;5042706;28;20188;-88
2022/05/19 02:04:26;;;;;;;11.57;6.00;;;17.30;84.50;;;;;;5043199;28;20172;-88
2022/05/19 02:06:57;;;;;;;7.05;6.10;;;17.20;84.50;;;;;;5042343;28;20286;-87
2022/05/19 02:09:31;;;;;;;7.38;5.88;;;17.20;84.50;;;;;;5041526;28;20207;-88
2022/05/19 02:11:58;;;;;;;10.88;6.10;;;17.20;84.40;;;;;;5040040;28;20240;-88
2022/05/19 02:14:39;;;;;;;9.02;6.30;;;17.20;84.40;;;;;;5039290;28;20221;-88
2022/05/19 02:17:08;;;;;;;10.20;6.68;;;17.20;84.50;;;;;;5056636;28;20164;-88
2022/05/19 02:19:39;;;;;;;8.57;6.03;;;17.10;84.30;;;;;;5039837;28;20175;-88
2022/05/19 02:22:06;;;;;;;8.95;6.00;;;17.10;84.30;;;;;;5039481;28;20208;-89
2022/05/19 02:24:36;;;;;;;7.65;5.68;;;17.00;84.20;;;;;;5038679;28;20180;-88
2022/05/19 02:27:24;;;;;;;6.68;6.13;;;17.00;84.20;;;;;;5039627;28;20204;-88
2022/05/19 02:29:50;;;;;;;8.32;5.93;;;17.00;84.20;;;;;;5040810;28;20172;-88
2022/05/19 02:32:16;;;;;;;10.02;6.40;;;16.80;84.30;;;;;;5040150;28;20199;-88
2022/05/19 02:34:41;;;;;;;9.15;6.05;;;16.70;84.60;;;;;;5040813;28;20186;-88
2022/05/19 02:37:07;;;;;;;6.85;6.00;;;16.70;84.60;;;;;;5040029;28;20176;-87
2022/05/19 02:39:32;;;;;;;11.20;5.97;;;16.70;84.70;;;;;;5057192;28;20168;-87
2022/05/19 02:41:58;;;;;;;8.23;5.47;;;16.70;84.60;;;;;;5039392;28;20200;-87
2022/05/19 02:44:23;;;;;;;6.53;5.80;;;16.70;84.60;;;;;;5056867;28;20225;-87
2022/05/19 02:46:49;;;;;;;10.38;5.68;;;16.70;84.50;;;;;;5039707;28;20586;-87
2022/05/19 02:49:14;;;;;;;10.55;6.72;;;16.70;84.40;;;;;;5039658;28;20275;-88
2022/05/19 02:51:40;;;;;;;11.50;6.13;;;16.70;84.30;;;;;;5039678;28;20291;-87
2022/05/19 02:54:05;;;;;;;6.90;6.07;;;16.70;84.30;;;;;;5039354;28;20172;-88
2022/05/19 02:56:31;;;;;;;10.25;6.22;;;16.60;84.20;;;;;;5038639;28;20590;-87
2022/05/19 02:58:56;;;;;;;11.68;6.30;;;16.60;84.30;;;;;;5038967;28;20229;-88
2022/05/19 03:01:22;;;;;;;9.50;6.85;;;16.50;84.40;;;;;;5038862;28;20196;-87
2022/05/19 03:03:48;;;;;;;7.78;6.97;;;16.50;84.70;;;;;;5038687;28;20180;-87
2022/05/19 03:06:14;;;;;;;10.75;7.60;;;16.40;84.90;;;;;;5039125;28;20199;-88
2022/05/19 03:08:39;;;;;;;7.43;6.53;;;16.40;85.20;;;;;;5039228;28;20179;-88
2022/05/19 03:11:05;;;;;;;9.30;7.13;;;16.40;85.20;;;;;;5042702;28;20671;-88
2022/05/19 03:13:31;;;;;;;9.27;6.93;;;16.40;85.20;;;;;;5061324;28;20683;-88
2022/05/19 03:15:56;;;;;;;12.05;7.20;;;16.40;85.20;;;;;;5042982;28;20168;-87
2022/05/19 03:18:22;;;;;;;8.02;6.95;;;16.40;85.10;;;;;;5042669;28;20684;-87
2022/05/19 03:20:47;;;;;;;7.63;6.85;;;16.40;85.20;;;;;;5043365;28;20227;-88
2022/05/19 03:23:13;;;;;;;8.98;7.07;;;16.40;85.30;;;;;;5042857;28;20172;-88
2022/05/19 03:25:39;;;;;;;10.82;7.28;;;16.40;85.40;;;;;;5042776;28;20267;-88
2022/05/19 03:28:05;;;;;;;13.80;6.60;;;16.40;85.40;;;;;;5042574;28;20616;-87
2022/05/19 03:30:30;;;;;;;8.65;7.05;;;16.30;85.40;;;;;;5042874;28;20287;-88
2022/05/19 03:32:56;;;;;;;9.32;7.80;;;16.30;85.30;;;;;;5042895;28;20184;-87
2022/05/19 03:35:22;;;;;;;8.43;7.55;;;16.40;85.30;;;;;;5060625;28;20215;-88
2022/05/19 03:37:47;;;;;;;12.63;8.93;;;16.40;85.40;;;;;;5043359;28;20187;-88
2022/05/19 03:40:16;;;;;;;10.20;8.90;;;16.40;85.40;;;;;;5041223;28;20685;-87
2022/05/19 03:42:42;;;;;;;9.75;7.72;;;16.40;85.70;;;;;;5061212;28;20176;-87
2022/05/19 03:45:08;;;;;;;8.93;8.02;;;16.30;86.00;;;;;;5044253;28;20714;-87
2022/05/19 03:47:34;;;;;;;15.20;8.60;;;16.30;86.10;;;;;;5060980;28;20203;-87
2022/05/19 03:49:59;;;;;;;11.43;9.25;;;16.20;86.10;;;;;;5042609;28;20168;-88
2022/05/19 03:52:25;;;;;;;11.30;9.13;;;16.20;86.50;;;;;;5043499;28;20634;-87
2022/05/19 03:54:51;;;;;;;12.40;8.50;;;16.10;86.70;;;;;;5043988;28;20239;-88
2022/05/19 03:57:21;;;;;;;10.60;8.95;;;16.10;86.90;;;;;;5044103;28;20256;-88
2022/05/19 03:59:47;;;;;;;13.30;9.70;;;15.90;87.30;;;;;;5045085;28;20176;-88
2022/05/19 04:02:13;;;;;;;10.85;9.02;;;15.90;87.50;;;;;;5043952;28;20285;-88
2022/05/19 04:04:38;;;;;;;10.32;9.32;;;15.80;87.70;;;;;;5062158;28;20168;-88
2022/05/19 04:07:04;;;;;;;11.75;8.57;;;15.70;88.00;;;;;;5061870;28;20192;-88
2022/05/19 04:09:29;;;;;;;10.10;9.02;;;15.70;88.10;;;;;;5044257;28;20176;-87
2022/05/19 04:11:55;;;;;;;12.05;9.70;;;15.70;88.30;;;;;;5044128;28;20203;-88
2022/05/19 04:14:21;;;;;;;15.23;10.90;;;15.70;88.40;;;;;;5042921;28;20172;-88
2022/05/19 04:16:49;;;;;;;22.35;17.02;;;15.70;88.40;;;;;;5043192;28;20220;-88
2022/05/19 04:19:16;;;;;;;29.75;23.65;;;15.80;88.50;;;;;;5061051;28;20665;-87
2022/05/19 04:21:42;;;;;;;24.77;20.58;;;15.90;88.50;;;;;;5059999;28;20202;-88
2022/05/19 04:24:07;;;;;;;41.65;30.35;;;16.00;88.50;;;;;;5042553;28;20172;-88
2022/05/19 04:26:33;;;;;;;39.00;29.05;;;16.10;88.60;;;;;;5062945;28;20195;-87
2022/05/19 04:28:58;;;;;;;38.08;31.70;;;16.20;89.00;;;;;;5045912;28;20236;-87
2022/05/19 04:31:24;;;;;;;38.85;33.33;;;16.20;89.40;;;;;;5044658;28;20212;-87
2022/05/19 04:33:49;;;;;;;39.72;33.75;;;16.20;89.40;;;;;;5060908;28;20666;-88
2022/05/19 04:36:15;;;;;;;43.88;34.88;;;16.30;89.40;;;;;;5043996;28;20180;-87
2022/05/19 04:38:41;;;;;;;53.22;41.40;;;16.30;89.40;;;;;;5043344;28;20180;-87
2022/05/19 04:41:06;;;;;;;68.45;55.80;;;16.40;89.40;;;;;;5043384;28;20211;-88
2022/05/19 04:43:32;;;;;;;76.70;58.28;;;16.50;89.50;;;;;;5047484;28;20180;-88
2022/05/19 04:45:58;;;;;;;78.90;58.10;;;16.50;89.90;;;;;;5064627;28;20179;-88
2022/05/19 04:48:25;;;;;;;76.65;58.30;;;16.50;90.10;;;;;;5064543;28;20175;-88
2022/05/19 04:50:53;;;;;;;83.15;59.65;;;16.50;90.30;;;;;;5046313;28;20199;-87
2022/05/19 04:53:18;;;;;;;86.97;60.60;;;16.50;90.60;;;;;;5044811;28;20195;-88
2022/05/19 04:55:44;;;;;;;75.75;57.08;;;16.40;90.80;;;;;;5046902;28;20547;-88
2022/05/19 04:58:10;;;;;;;88.03;65.45;;;16.30;91.00;;;;;;5045433;28;20555;-87
2022/05/19 05:00:36;;;;;;;87.35;62.22;;;16.40;91.20;;;;;;5044359;28;20204;-88
2022/05/19 05:03:03;;;;;;;68.45;53.67;;;16.40;91.20;;;;;;5044008;28;20179;-87
2022/05/19 05:05:28;;;;;;;72.13;54.60;;;16.40;91.30;;;;;;5043112;28;20180;-88
2022/05/19 05:07:54;;;;;;;86.93;61.50;;;16.50;91.30;;;;;;5044744;28;20559;-87
2022/05/19 05:10:19;;;;;;;87.10;63.50;;;16.60;91.20;;;;;;5044856;28;20274;-88
2022/05/19 05:12:45;;;;;;;86.30;63.30;;;16.60;91.30;;;;;;5046148;28;20194;-87
2022/05/19 05:15:11;;;;;;;82.78;63.92;;;16.70;91.30;;;;;;5044877;28;20242;-87
2022/05/19 05:17:37;;;;;;;84.70;64.45;;;16.70;91.30;;;;;;5062157;28;20207;-88
2022/05/19 05:20:05;;;;;;;90.93;64.60;;;16.70;91.40;;;;;;5045928;28;20184;-88
2022/05/19 05:22:34;;;;;;;84.65;63.65;;;16.80;91.50;;;;;;5044729;28;20251;-87
2022/05/19 05:25:01;;;;;;;81.60;63.95;;;16.80;91.70;;;;;;5062493;28;20164;-87
2022/05/19 05:27:26;;;;;;;84.07;64.88;;;16.90;91.70;;;;;;5044739;28;20200;-87
2022/05/19 05:29:52;;;;;;;86.65;65.70;;;17.00;91.80;;;;;;5045650;28;20235;-88
2022/05/19 05:32:18;;;;;;;78.88;59.72;;;17.10;91.90;;;;;;5044642;28;20666;-88
2022/05/19 05:34:43;;;;;;;71.88;55.17;;;17.20;92.00;;;;;;5044851;28;20179;-88
2022/05/19 05:37:09;;;;;;;77.38;52.10;;;17.30;92.00;;;;;;5045307;28;20523;-88
2022/05/19 05:39:34;;;;;;;56.97;48.97;;;17.40;92.10;;;;;;5046204;28;20183;-88
2022/05/19 05:42:00;;;;;;;60.88;45.90;;;17.50;92.00;;;;;;5044789;28;20206;-88
2022/05/19 05:44:25;;;;;;;59.33;47.63;;;17.50;92.00;;;;;;5060693;28;20251;-88
2022/05/19 05:46:51;;;;;;;53.85;42.55;;;17.60;91.90;;;;;;5044986;28;20295;-88
2022/05/19 05:49:18;;;;;;;43.95;35.28;;;17.70;91.90;;;;;;5043622;28;20183;-88
2022/05/19 05:51:44;;;;;;;33.90;28.17;;;17.80;91.80;;;;;;5044079;28;20708;-88
2022/05/19 05:54:10;;;;;;;31.13;26.15;;;17.80;91.60;;;;;;5062890;28;20172;-88
2022/05/19 05:56:35;;;;;;;31.98;23.88;;;17.90;91.30;;;;;;5044466;28;20179;-88
2022/05/19 05:59:01;;;;;;;21.98;19.33;;;18.10;91.20;;;;;;5043573;28;20180;-87
2022/05/19 06:01:27;;;;;;;18.23;16.20;;;18.20;91.00;;;;;;5042563;28;20575;-88
2022/05/19 06:03:53;;;;;;;16.98;12.82;;;18.40;90.90;;;;;;5041900;28;20183;-88
2022/05/19 06:06:19;;;;;;;14.18;11.77;;;18.50;90.50;;;;;;5040750;28;20196;-88
2022/05/19 06:08:44;;;;;;;14.50;9.73;;;18.60;89.70;;;;;;5056722;28;20168;-87
2022/05/19 06:11:10;;;;;;;11.90;9.77;;;18.70;88.20;;;;;;5038672;28;20200;-87
2022/05/19 06:13:36;;;;;;;19.48;10.02;;;18.70;87.50;;;;;;5041420;28;20171;-88
2022/05/19 06:16:02;;;;;;;10.95;9.63;;;18.80;87.00;;;;;;5041743;28;20175;-88
2022/05/19 06:18:28;;;;;;;10.95;9.52;;;18.90;86.70;;;;;;5058911;28;20172;-88
2022/05/19 06:20:54;;;;;;;10.52;8.98;;;19.00;85.70;;;;;;5041330;28;20200;-88
2022/05/19 06:23:20;;;;;;;9.90;8.35;;;19.20;85.60;;;;;;5040384;28;20249;-88
2022/05/19 06:25:46;;;;;;;9.43;7.68;;;19.30;84.90;;;;;;5040497;28;20669;-87
2022/05/19 06:28:12;;;;;;;10.70;8.02;;;19.40;84.40;;;;;;5039652;28;20196;-89
2022/05/19 06:30:38;;;;;;;9.38;7.32;;;19.60;84.20;;;;;;5039977;28;20191;-87
2022/05/19 06:33:05;;;;;;;11.80;7.75;;;19.70;83.30;;;;;;5055656;28;20194;-88
2022/05/19 06:35:32;;;;;;;9.18;7.20;;;19.80;83.00;;;;;;5037650;28;20198;-88
2022/05/19 06:37:57;;;;;;;13.02;7.80;;;20.00;82.80;;;;;;5057322;28;20176;-88
2022/05/19 06:40:24;;;;;;;11.00;8.00;;;20.10;82.50;;;;;;5039065;28;20624;-87
2022/05/19 06:42:51;;;;;;;12.23;7.20;;;20.30;81.70;;;;;;5037600;28;20176;-88
2022/05/19 06:45:20;;;;;;;7.75;6.95;;;20.40;80.50;;;;;;5056203;28;20180;-87
2022/05/19 06:47:46;;;;;;;12.98;6.80;;;20.50;79.90;;;;;;5037936;28;20195;-85
2022/05/19 06:50:13;;;;;;;8.80;6.95;;;20.70;78.90;;;;;;5037406;28;20268;-89
2022/05/19 06:53:00;;;;;;;8.35;6.57;;;20.70;79.00;;;;;;5036364;28;20179;-88
2022/05/19 06:55:27;;;;;;;8.23;7.03;;;20.80;78.50;;;;;;5037166;28;20638;-87
2022/05/19 06:57:53;;;;;;;12.43;6.88;;;20.70;78.10;;;;;;5056188;28;20172;-88
2022/05/19 07:00:22;;;;;;;7.63;6.43;;;20.80;77.90;;;;;;5038536;28;20298;-88
2022/05/19 07:02:50;;;;;;;11.40;6.82;;;20.80;77.70;;;;;;5055660;28;20176;-88
2022/05/19 07:05:21;;;;;;;9.45;6.80;;;20.80;78.00;;;;;;5054033;28;20226;-87
2022/05/19 07:07:47;;;;;;;7.10;6.38;;;20.90;78.00;;;;;;5053029;28;20657;-88
2022/05/19 07:10:17;;;;;;;14.18;6.15;;;20.90;78.00;;;;;;5053031;28;20237;-87
2022/05/19 07:12:44;;;;;;;8.38;5.88;;;20.90;78.00;;;;;;5035434;28;20167;-87
2022/05/19 07:15:12;;;;;;;13.00;6.13;;;20.90;77.60;;;;;;5053187;28;20198;-88
2022/05/19 07:17:38;;;;;;;7.80;5.85;;;21.00;78.10;;;;;;5053587;28;20164;-88
2022/05/19 07:22:49;;;;;;;7.05;5.47;;;21.30;78.20;;;;;;5053067;28;20206;-88
2022/05/19 07:25:15;;;;;;;7.63;5.78;;;21.40;76.80;;;;;;5036996;28;20176;-88
2022/05/19 07:27:41;;;;;;;7.05;5.80;;;21.60;76.00;;;;;;5035082;28;20627;-88
2022/05/19 07:30:07;;;;;;;7.53;4.85;;;21.70;75.60;;;;;;5035159;28;20670;-88
2022/05/19 07:32:33;;;;;;;6.65;4.95;;;21.80;75.30;;;;;;5034920;28;20188;-88
2022/05/19 07:34:59;;;;;;;10.68;5.13;;;22.00;75.10;;;;;;5035035;28;20178;-89
2022/05/19 07:37:25;;;;;;;6.88;5.13;;;22.10;74.30;;;;;;5053649;28;20229;-88
2022/05/19 07:39:52;;;;;;;7.30;4.82;;;22.20;74.20;;;;;;5053396;28;20172;-89
2022/05/19 07:42:18;;;;;;;6.90;4.22;;;22.30;73.20;;;;;;5035699;28;20176;-87
2022/05/19 07:44:44;;;;;;;9.02;4.70;;;22.50;73.00;;;;;;5053571;28;20215;-88
2022/05/19 07:47:10;;;;;;;5.38;4.45;;;22.70;72.00;;;;;;5035736;28;20227;-88
2022/05/19 07:49:36;;;;;;;5.47;4.15;;;22.80;71.30;;;;;;5037111;28;20179;-89
2022/05/19 07:52:03;;;;;;;7.40;4.53;;;22.90;71.40;;;;;;5038454;28;20192;-90
2022/05/19 07:54:30;;;;;;;7.63;4.57;;;23.10;70.90;;;;;;5037049;28;20259;-89
2022/05/19 07:56:56;;;;;;;18.42;4.95;;;23.10;69.40;;;;;;5040276;28;20176;-89
2022/05/19 07:59:22;;;;;;;6.78;3.90;;;23.20;70.90;;;;;;5042975;28;20180;-90
2022/05/19 08:01:48;;;;;;;6.57;3.88;;;23.20;69.70;;;;;;5057897;28;20234;-91
2022/05/19 08:04:15;;;;;;;6.28;4.85;;;23.10;68.90;;;;;;5038513;28;20184;-89
2022/05/19 08:06:41;;;;;;;7.75;4.32;;;23.10;69.40;;;;;;5038614;28;20199;-89
2022/05/19 08:11:53;;;;;;;8.23;3.55;;;23.20;67.00;;;;;;5058232;28;20258;-90
2022/05/19 08:17:07;;;;;;;11.82;3.50;;;23.60;65.90;;;;;;5056811;28;20167;-86
2022/05/19 08:19:32;;;;;;;9.23;3.60;;;23.70;64.50;;;;;;5056469;28;20179;-87
2022/05/19 08:21:58;;;;;;;14.13;3.75;;;24.00;64.50;;;;;;5056952;28;20197;-90
2022/05/19 08:24:26;;;;;;;9.82;4.05;;;24.10;64.40;;;;;;5040333;28;20180;-90
2022/05/19 08:26:52;;;;;;;6.65;3.58;;;24.00;63.70;;;;;;5039254;28;20282;-90
2022/05/19 08:29:21;;;;;;;8.27;4.28;;;24.20;64.30;;;;;;5039927;28;20211;-91
2022/05/19 08:31:46;;;;;;;4.90;3.28;;;24.20;64.10;;;;;;5039148;28;20212;-89
2022/05/19 08:34:13;;;;;;;8.65;3.53;;;24.20;62.50;;;;;;5056513;28;20280;-90
2022/05/19 08:36:40;;;;;;;8.32;3.67;;;24.40;62.50;;;;;;5038098;28;20183;-89
2022/05/19 08:39:06;;;;;;;6.65;3.63;;;24.50;62.70;;;;;;5037973;28;20178;-90
2022/05/19 08:41:35;;;;;;;6.15;3.60;;;24.70;62.50;;;;;;5038793;28;20196;-90
2022/05/19 08:44:14;;;;;;;9.48;3.50;;;24.80;61.00;;;;;;5039551;28;20176;-88
2022/05/19 08:46:47;;;;;;;6.45;3.40;;;25.00;61.30;;;;;;5056771;28;20180;-91
2022/05/19 08:49:17;;;;;;;4.90;3.10;;;25.20;60.20;;;;;;5038400;28;20210;-90
2022/05/19 08:51:56;;;;;;;6.20;3.10;;;25.40;60.60;;;;;;5037672;28;20203;-89
2022/05/19 08:54:23;;;;;;;6.38;3.28;;;25.50;58.90;;;;;;5043647;28;20763;-89
2022/05/19 08:57:05;;;;;;;4.45;3.47;;;25.50;58.00;;;;;;5037370;28;20230;-89
2022/05/19 08:59:58;;;;;;;4.07;2.80;;;25.70;58.00;;;;;;5038029;28;20274;-88
2022/05/19 09:02:46;;;;;;;6.05;3.85;;;25.80;57.80;;;;;;5037201;28;20184;-89
2022/05/19 09:05:46;;;;;;;4.93;3.05;;;26.00;58.30;;;;;;5055166;28;20164;-89
2022/05/19 09:08:37;;;;;;;6.28;2.97;;;26.10;57.30;;;;;;5036717;28;20212;-88
2022/05/19 09:11:13;;;;;;;5.82;3.00;;;26.00;56.10;;;;;;5036905;28;20188;-88
2022/05/19 09:13:54;;;;;;;5.60;2.97;;;26.00;56.50;;;;;;5037112;28;20160;-89
2022/05/19 09:16:42;;;;;;;7.45;3.00;;;26.20;56.50;;;;;;5036908;28;20264;-89
2022/05/19 09:19:13;;;;;;;5.78;3.00;;;26.30;55.80;;;;;;5054631;28;20673;-89
2022/05/19 09:21:41;;;;;;;6.93;2.92;;;26.50;56.50;;;;;;5036855;28;20192;-89
2022/05/19 09:24:10;;;;;;;6.35;3.63;;;26.50;54.80;;;;;;5036726;28;20183;-89
2022/05/19 09:26:53;;;;;;;16.05;3.80;;;26.50;55.70;;;;;;5054529;28;20735;-89
2022/05/19 09:29:33;;;;;;;9.07;3.70;;;26.20;54.80;;;;;;5054545;28;20196;-89
2022/05/19 09:32:12;;;;;;;5.53;3.50;;;26.20;55.00;;;;;;5036588;28;20207;-88
2022/05/19 09:34:37;;;;;;;5.15;3.28;;;26.20;56.30;;;;;;5036663;28;20172;-89
2022/05/19 09:37:08;;;;;;;11.80;3.80;;;26.40;55.00;;;;;;5036487;28;20175;-89
2022/05/19 09:39:51;;;;;;;8.52;3.78;;;26.50;56.40;;;;;;5036501;28;20172;-89
2022/05/19 09:42:22;;;;;;;10.20;4.15;;;26.40;56.10;;;;;;5036410;28;20262;-90
2022/05/19 09:44:55;;;;;;;5.15;3.75;;;26.30;56.20;;;;;;5036474;28;20578;-89
2022/05/19 09:47:45;;;;;;;8.75;3.70;;;26.20;57.00;;;;;;5036363;28;20205;-89
2022/05/19 09:50:22;;;;;;;4.72;3.88;;;26.20;57.40;;;;;;5036287;28;20238;-89
2022/05/19 09:52:48;;;;;;;6.43;4.00;;;26.10;57.30;;;;;;5054158;28;20183;-89
2022/05/19 09:55:19;;;;;;;7.40;4.15;;;26.10;58.50;;;;;;5036229;28;20203;-89
2022/05/19 09:57:53;;;;;;;6.63;4.13;;;26.20;58.80;;;;;;5053982;28;20630;-89
2022/05/19 10:00:30;;;;;;;7.85;3.78;;;26.20;57.70;;;;;;5036566;28;20218;-89
2022/05/19 10:02:58;;;;;;;8.45;4.70;;;26.30;58.40;;;;;;5036399;28;20660;-88
2022/05/19 10:05:42;;;;;;;7.82;3.92;;;26.20;57.20;;;;;;5036229;28;20184;-89
2022/05/19 10:08:15;;;;;;;9.60;4.10;;;26.20;58.60;;;;;;5036032;28;20192;-89
2022/05/19 10:10:47;;;;;;;8.73;4.15;;;26.20;57.90;;;;;;5035762;28;20200;-88
2022/05/19 10:13:16;;;;;;;6.00;4.25;;;26.30;57.90;;;;;;5053752;28;20155;-88
2022/05/19 10:16:17;;;;;;;5.63;3.80;;;26.40;59.10;;;;;;5035821;28;20174;-89
2022/05/19 10:19:00;;;;;;;8.90;4.10;;;26.30;58.60;;;;;;5034824;28;20669;-89
2022/05/19 10:21:42;;;;;;;4.70;3.50;;;26.30;58.10;;;;;;5035657;28;20241;-88
2022/05/19 10:24:47;;;;;;;7.03;4.47;;;26.30;58.30;;;;;;5035813;28;20164;-88
2022/05/19 10:33:40;;;;;;;4.53;3.90;;;26.40;59.10;;;;;;5053721;28;20238;-89
2022/05/19 10:36:28;;;;;;;9.05;4.60;;;26.60;59.00;;;;;;5053475;28;20156;-89
2022/05/19 10:39:01;;;;;;;7.40;4.10;;;26.70;57.60;;;;;;5035852;28;20650;-89
2022/05/19 10:41:49;;;;;;;8.63;4.80;;;26.70;56.30;;;;;;5035447;28;20195;-88
2022/05/19 10:44:23;;;;;;;5.95;4.22;;;27.00;57.00;;;;;;5036778;28;20179;-89
2022/05/19 10:47:22;;;;;;;12.10;4.70;;;27.20;54.40;;;;;;5053611;28;20183;-89
2022/05/19 10:49:54;;;;;;;8.65;4.45;;;27.30;55.90;;;;;;5037051;28;20225;-91
2022/05/19 10:52:37;;;;;;;7.65;4.35;;;27.30;55.70;;;;;;5036504;28;20213;-90
2022/05/19 10:55:27;;;;;;;6.50;4.70;;;27.40;54.20;;;;;;5038935;28;20178;-90
2022/05/19 10:58:23;;;;;;;6.47;4.50;;;27.20;54.70;;;;;;5035751;28;20263;-90
2022/05/19 11:00:58;;;;;;;9.18;4.07;;;27.30;55.10;;;;;;5035550;28;20195;-90
2022/05/19 11:03:34;;;;;;;9.60;4.65;;;27.40;53.30;;;;;;5035330;28;20175;-88
2022/05/19 11:06:24;;;;;;;7.03;3.80;;;27.40;56.20;;;;;;5035530;28;20427;-90
2022/05/19 11:09:10;;;;;;;5.90;4.13;;;27.40;53.80;;;;;;5035298;28;20176;-89
2022/05/19 11:12:00;;;;;;;9.48;4.82;;;27.50;55.30;;;;;;5035402;28;20191;-90
2022/05/19 11:14:48;;;;;;;5.53;4.10;;;27.70;55.20;;;;;;5035230;28;20168;-90
2022/05/19 11:17:42;;;;;;;8.73;4.15;;;27.80;54.60;;;;;;5035280;28;20176;-90
2022/05/19 11:20:17;;;;;;;8.13;4.38;;;28.10;54.30;;;;;;5035826;28;20196;-90
2022/05/19 11:22:48;;;;;;;10.32;5.47;;;28.20;53.50;;;;;;5036259;28;20175;-88
2022/05/19 11:28:36;;;;;;;12.15;5.90;;;28.40;54.40;;;;;;5053451;28;20199;-89
2022/05/19 11:31:11;;;;;;;12.07;5.47;;;28.90;52.20;;;;;;5053622;28;20195;-88
2022/05/19 11:33:41;;;;;;;10.15;5.47;;;29.20;52.30;;;;;;5039713;28;20183;-88
2022/05/19 11:36:16;;;;;;;8.13;4.97;;;29.30;49.90;;;;;;5039336;28;20202;-89
2022/05/19 11:39:21;;;;;;;9.50;5.35;;;29.20;52.30;;;;;;5039576;28;20178;-89
2022/05/19 11:41:49;;;;;;;8.48;5.50;;;29.30;52.50;;;;;;4960611;28;20554;-89
2022/05/19 11:44:19;;;;;;;10.93;5.82;;;29.50;53.00;;;;;;4976978;28;20183;-91
2022/05/19 11:47:10;;;;;;;14.30;5.10;;;29.50;51.00;;;;;;5017942;28;20240;-89
2022/05/19 11:55:45;;;;;;;8.82;4.72;;;29.20;50.00;;;;;;5057356;28;20166;-87
2022/05/19 11:58:23;;;;;;;9.70;5.40;;;29.80;49.10;;;;;;5038566;28;20171;-89
2022/05/19 12:00:55;;;;;;;13.05;5.40;;;29.90;48.40;;;;;;5056497;28;20564;-87
2022/05/19 12:03:35;;;;;;;13.15;5.72;;;29.90;47.80;;;;;;5038389;28;20184;-88
2022/05/19 12:06:12;;;;;;;8.23;4.80;;;30.10;47.60;;;;;;5056155;28;20634;-88
2022/05/19 12:08:57;;;;;;;7.15;5.13;;;30.20;48.90;;;;;;5038145;28;20294;-88
2022/05/19 12:11:29;;;;;;;6.97;4.15;;;30.20;47.80;;;;;;5056263;28;20206;-87
2022/05/19 12:14:40;;;;;;;10.20;4.50;;;30.50;48.40;;;;;;5038133;28;20711;-88
2022/05/19 12:17:06;;;;;;;13.77;5.03;;;30.50;48.50;;;;;;5035348;28;20188;-88
2022/05/19 12:19:38;;;;;;;8.60;5.03;;;30.20;48.00;;;;;;5038243;28;20180;-89
2022/05/19 12:22:35;;;;;;;6.50;4.82;;;30.20;49.00;;;;;;5038002;28;20250;-90
2022/05/19 12:25:01;;;;;;;7.45;5.20;;;30.00;50.70;;;;;;5038710;28;20536;-89
2022/05/19 12:27:37;;;;;;;5.63;4.47;;;29.90;51.00;;;;;;5037718;28;20214;-89
2022/05/19 12:33:32;;;;;;;16.73;15.13;;;29.90;53.10;;;;;;5055540;28;20265;-91
2022/05/19 12:36:06;;;;;;;18.23;16.38;;;29.70;54.60;;;;;;5038520;28;20619;-90
2022/05/19 12:38:36;;;;;;;23.90;16.60;;;29.50;55.10;;;;;;5037714;28;20168;-92
2022/05/19 12:41:08;;;;;;;21.45;18.63;;;29.20;54.80;;;;;;5037545;28;20207;-91
2022/05/19 12:43:36;;;;;;;20.15;18.00;;;29.10;56.20;;;;;;5037106;28;20595;-91
2022/05/19 12:46:03;;;;;;;14.45;12.95;;;28.80;56.20;;;;;;5037520;28;20658;-91
2022/05/19 12:48:32;;;;;;;17.13;15.20;;;28.80;56.50;;;;;;5038866;28;20606;-91
2022/05/19 12:51:25;;;;;;;19.80;17.15;;;28.70;57.20;;;;;;5038256;28;20286;-90
2022/05/19 12:54:03;;;;;;;21.35;15.48;;;28.50;57.60;;;;;;5055360;28;20156;-90
2022/05/19 12:56:50;;;;;;;14.80;12.70;;;28.40;57.30;;;;;;5037949;28;20262;-90
2022/05/19 12:59:54;;;;;;;16.63;13.00;;;28.50;57.00;;;;;;5037152;28;20183;-91
2022/05/19 13:02:55;;;;;;;16.67;11.90;;;28.50;55.60;;;;;;5036620;28;20180;-90
2022/05/19 13:05:46;;;;;;;13.27;10.95;;;28.50;57.70;;;;;;5037314;28;20661;-91
2022/05/19 13:08:14;;;;;;;14.32;9.68;;;28.50;56.70;;;;;;5037138;28;20200;-90
2022/05/19 13:10:44;;;;;;;9.93;7.85;;;28.70;55.60;;;;;;5055029;28;20195;-90
2022/05/19 13:13:41;;;;;;;11.60;8.20;;;28.70;56.40;;;;;;5037199;28;20227;-91
2022/05/19 13:16:24;;;;;;;13.55;7.78;;;28.80;54.00;;;;;;5054785;28;20247;-91
2022/05/19 13:18:53;;;;;;;9.55;8.15;;;28.90;53.90;;;;;;5037041;28;20544;-91
2022/05/19 13:21:29;;;;;;;14.88;9.27;;;29.00;54.20;;;;;;5054522;28;20245;-91
2022/05/19 13:23:55;;;;;;;14.90;8.63;;;28.90;53.70;;;;;;5037722;28;20156;-91
2022/05/19 13:26:28;;;;;;;14.00;8.88;;;29.10;53.70;;;;;;5036803;28;20304;-91
2022/05/19 13:32:00;;;;;;;13.05;8.82;;;29.20;54.10;;;;;;5054658;28;20210;-91
2022/05/19 13:34:29;;;;;;;9.70;8.75;;;29.20;55.90;;;;;;5036743;28;20160;-89